Time;durP1;ratioP1;P1;durP2;ratioP2;P2;SDS_P1;SDS_P2;PMS_P1;PMS_P2;Temp;Humidity;BMP_temperature;BMP_pressure;BME280_temperature;BME280_humidity;BME280_pressure;Samples;Min_cycle;Max_cycle;Signal;HPM_P1;HPM_P2
2021/05/06 00:32:23;;;;;;;3.97;1.73;;;;;;;2.87;69.72;100017.55;128398;1101;62346;-76
2021/05/06 00:34:50;;;;;;;2.87;0.87;;;;;;;2.83;70.07;100019.62;128337;1101;63972;-77
2021/05/06 00:37:18;;;;;;;5.17;1.87;;;;;;;2.81;69.99;100015.49;128371;1101;62890;-77
2021/05/06 00:40:09;;;;;;;5.13;1.80;;;;;;;2.78;70.64;100016.58;128338;1101;62120;-77
2021/05/06 00:58:55;;;;;;;5.13;1.57;;;;;;;2.73;70.51;100026.66;128418;1101;62272;-77
2021/05/06 01:04:03;;;;;;;7.10;1.73;;;;;;;2.68;70.90;100033.28;128390;1101;63075;-78
2021/05/06 01:06:32;;;;;;;8.00;1.37;;;;;;;2.63;71.37;100028.47;128404;1101;63178;-77
2021/05/06 01:09:04;;;;;;;6.83;1.50;;;;;;;2.61;71.13;100025.16;128376;1101;63901;-77
2021/05/06 01:14:32;;;;;;;4.57;1.27;;;;;;;2.51;71.87;100019.10;128221;1101;62409;-77
2021/05/06 01:16:59;;;;;;;3.23;1.40;;;;;;;2.50;72.12;100014.84;128357;1101;62086;-77
2021/05/06 01:19:26;;;;;;;6.10;1.53;;;;;;;2.44;72.08;100014.45;128393;1101;62074;-77
2021/05/06 01:21:56;;;;;;;6.33;1.73;;;;;;;2.44;72.21;100021.45;128352;1101;62708;-77
2021/05/06 01:24:23;;;;;;;4.93;1.63;;;;;;;2.42;72.16;100015.53;128393;1101;62777;-77
2021/05/06 01:26:59;;;;;;;9.27;1.43;;;;;;;2.40;71.92;100012.22;128365;1101;62272;-77
2021/05/06 01:29:30;;;;;;;9.50;2.00;;;;;;;2.37;72.33;100007.28;128444;1101;62104;-77
2021/05/06 01:32:18;;;;;;;11.30;1.73;;;;;;;2.33;72.00;100011.95;128383;1101;62435;-76
2021/05/06 01:34:48;;;;;;;7.40;1.60;;;;;;;2.35;72.74;100006.59;128317;1101;62631;-77
2021/05/06 01:37:21;;;;;;;7.37;1.43;;;;;;;2.36;71.48;100005.61;128323;1101;62850;-78
2021/05/06 01:42:25;;;;;;;7.17;1.80;;;;;;;2.38;72.07;100009.77;128370;1101;62291;-77
2021/05/06 01:47:31;;;;;;;9.60;1.63;;;;;;;2.36;71.91;100008.23;128334;1101;62483;-78
2021/05/06 02:00:49;;;;;;;4.67;1.50;;;;;;;2.25;72.48;100017.05;128409;1101;62077;-78
2021/05/06 02:03:16;;;;;;;10.50;1.70;;;;;;;2.25;71.97;100011.81;128407;1101;62117;-78
2021/05/06 02:05:43;;;;;;;2.73;0.97;;;;;;;2.24;71.89;100007.56;128290;1101;62540;-78
2021/05/06 02:08:09;;;;;;;8.80;2.00;;;;;;;2.21;71.95;100013.05;128391;1101;62096;-77
2021/05/06 02:10:37;;;;;;;4.17;1.20;;;;;;;2.19;71.84;100007.98;128413;1101;62272;-78
2021/05/06 02:13:04;;;;;;;3.07;1.20;;;;;;;2.17;71.88;100012.52;128409;1101;62175;-77
2021/05/06 02:15:42;;;;;;;11.03;1.63;;;;;;;2.16;72.11;100010.04;128389;1101;62356;-77
2021/05/06 02:18:09;;;;;;;4.97;1.60;;;;;;;2.16;71.92;100007.42;128337;1101;63227;-77
2021/05/06 02:20:36;;;;;;;5.83;1.50;;;;;;;2.16;71.76;100004.80;128401;1101;62452;-77
2021/05/06 02:23:05;;;;;;;5.37;2.13;;;;;;;2.16;71.55;100004.80;128358;1101;62627;-77
2021/05/06 02:25:31;;;;;;;5.43;1.53;;;;;;;2.16;72.15;100002.19;128361;1101;62256;-77
2021/05/06 02:27:58;;;;;;;3.73;1.63;;;;;;;2.19;72.13;99996.66;128324;1101;62847;-78
2021/05/06 02:30:24;;;;;;;6.47;1.70;;;;;;;2.20;72.03;99990.48;128369;1101;62353;-79
2021/05/06 02:32:51;;;;;;;5.63;1.70;;;;;;;2.22;71.93;99991.17;128394;1101;62304;-78
2021/05/06 02:35:19;;;;;;;5.73;1.40;;;;;;;2.25;71.49;99993.50;128355;1101;62153;-78
2021/05/06 02:37:46;;;;;;;3.50;1.70;;;;;;;2.29;71.56;99989.64;128320;1101;63986;-78
2021/05/06 02:40:13;;;;;;;12.27;1.90;;;;;;;2.33;71.88;99987.58;128372;1101;63285;-78
2021/05/06 02:42:40;;;;;;;6.47;1.50;;;;;;;2.36;71.79;99985.52;128352;1101;62031;-79
2021/05/06 02:45:08;;;;;;;4.93;1.50;;;;;;;2.38;71.13;99983.59;128374;1101;62568;-78
2021/05/06 02:47:35;;;;;;;12.13;1.67;;;;;;;2.43;71.12;99980.55;128391;1101;62164;-77
2021/05/06 02:50:04;;;;;;;4.00;1.10;;;;;;;2.43;70.77;99976.13;128425;1101;62074;-78
2021/05/06 02:52:35;;;;;;;6.43;1.30;;;;;;;2.45;71.35;99976.82;128414;1101;63133;-77
2021/05/06 02:55:10;;;;;;;4.73;1.90;;;;;;;2.51;70.34;99977.21;128410;1101;63519;-77
2021/05/06 02:57:46;;;;;;;6.87;1.73;;;;;;;2.55;70.21;99968.11;128394;1101;62346;-77
2021/05/06 03:02:59;;;;;;;3.60;1.27;;;;;;;2.63;70.40;99965.63;128386;1101;62141;-77
2021/05/06 03:05:29;;;;;;;5.30;1.83;;;;;;;2.65;70.11;99958.45;128399;1101;62629;-77
2021/05/06 03:10:34;;;;;;;7.93;2.13;;;;;;;2.65;70.33;99958.45;128395;1101;63070;-77
2021/05/06 03:22:39;;;;;;;3.93;1.40;;;;;;;2.69;70.49;99957.20;128391;1101;63168;-77
2021/05/06 03:24:13;;;;;;;4.83;1.43;;;;;;;2.69;69.94;99962.44;128378;1101;62443;-77
2021/05/06 03:26:40;;;;;;;4.47;1.40;;;;;;;2.72;70.42;99963.94;128351;1101;62092;-76
2021/05/06 03:29:11;;;;;;;5.00;1.53;;;;;;;2.77;69.81;99964.36;128422;1101;62667;-76
2021/05/06 03:43:18;;;;;;;8.17;2.80;;;;;;;3.02;70.20;99950.62;128374;1101;62267;-77
2021/05/06 03:49:16;;;;;;;;;;;;;;;3.15;70.11;99955.52;128441;1101;63611;-76
2021/05/06 04:29:13;;;;;;;8.97;3.00;;;;;;;3.87;70.58;99950.41;128247;1101;63397;-77
2021/05/06 04:36:53;;;;;;;7.43;2.53;;;;;;;4.08;70.06;99953.54;128191;1101;63114;-78
2021/05/06 04:39:29;;;;;;;8.77;3.50;;;;;;;4.14;69.69;99946.84;128411;1101;62155;-79
2021/05/06 04:45:15;;;;;;;8.77;3.77;;;;;;;4.21;70.46;99953.16;128388;1101;62539;-78
2021/05/06 04:50:26;;;;;;;6.15;1.93;;;;;;;4.26;70.38;99956.13;128384;1101;62180;-79
2021/05/06 04:58:34;;;;;;;7.03;2.47;;;;;;;4.34;72.64;99972.95;128125;1103;62335;-78
2021/05/06 05:06:29;;;;;;;9.17;3.87;;;;;;;4.19;74.21;99967.41;128394;1101;62217;-78
2021/05/06 05:11:51;;;;;;;5.70;3.23;;;;;;;4.02;75.92;99975.14;128361;1101;62172;-76
2021/05/06 05:20:04;;;;;;;4.50;2.90;;;;;;;3.83;78.26;99975.28;128382;1101;62184;-75
2021/05/06 05:25:23;;;;;;;12.38;5.43;;;;;;;3.63;78.80;99980.66;128372;1101;62557;-74
2021/05/06 05:27:50;;;;;;;8.30;4.20;;;;;;;3.56;79.34;99982.20;128319;1101;62080;-75
2021/05/06 05:30:18;;;;;;;13.97;5.10;;;;;;;3.53;79.44;99987.76;128264;1101;62873;-75
2021/05/06 05:33:08;;;;;;;;;;;;;;;3.53;80.40;99986.91;128369;1101;62351;-76
2021/05/06 05:35:48;;;;;;;10.40;5.77;;;;;;;3.51;80.23;99981.83;128323;1101;62278;-76
2021/05/06 05:41:24;;;;;;;9.73;6.17;;;;;;;3.47;81.20;99999.64;128368;1101;62387;-76
2021/05/06 05:56:45;;;;;;;13.03;5.50;;;;;;;3.52;81.94;100001.83;128333;1101;62352;-75
2021/05/06 05:59:12;;;;;;;13.97;6.27;;;;;;;3.50;82.52;100002.95;128325;1101;62167;-75
2021/05/06 06:01:38;;;;;;;12.30;7.50;;;;;;;3.52;82.62;99996.58;128341;1101;62800;-76
2021/05/06 06:04:06;;;;;;;16.20;8.40;;;;;;;3.56;82.42;99995.32;128343;1101;62267;-75
2021/05/06 06:06:33;;;;;;;12.17;7.50;;;;;;;3.59;82.75;99996.81;128219;1101;62344;-75
2021/05/06 06:09:00;;;;;;;11.70;6.50;;;;;;;3.57;82.75;100002.23;128313;1101;62052;-75
2021/05/06 06:11:27;;;;;;;9.90;6.77;;;;;;;3.58;83.17;100000.42;128318;1101;62281;-75
2021/05/06 06:13:54;;;;;;;9.63;6.70;;;;;;;3.58;83.17;100008.30;128295;1101;62874;-76
2021/05/06 06:16:27;;;;;;;13.23;8.13;;;;;;;3.58;82.87;100003.87;128285;1101;62798;-76
2021/05/06 06:18:59;;;;;;;13.17;8.33;;;;;;;3.63;82.42;99996.40;128363;1101;62745;-75
2021/05/06 06:23:54;;;;;;;11.57;7.27;;;;;;;3.64;83.30;99998.03;128360;1101;63483;-77
2021/05/06 06:26:24;;;;;;;15.73;8.43;;;;;;;3.61;83.17;100002.74;128337;1101;62899;-75
2021/05/06 06:28:57;;;;;;;6.33;3.80;;;;;;;3.58;83.97;100000.42;128339;1101;63440;-75
2021/05/06 06:31:27;;;;;;;9.87;6.40;;;;;;;3.57;83.91;100007.47;128305;1101;64016;-75
2021/05/06 06:33:55;;;;;;;13.40;7.50;;;;;;;3.56;84.38;100005.81;128321;1101;62206;-75
2021/05/06 06:36:23;;;;;;;7.53;5.23;;;;;;;3.55;84.13;100003.32;128336;1101;62268;-76
2021/05/06 06:38:50;;;;;;;11.50;7.60;;;;;;;3.55;84.13;100006.80;128311;1101;62551;-74
2021/05/06 06:41:17;;;;;;;13.40;5.97;;;;;;;3.60;84.70;100011.59;128287;1101;62377;-75
2021/05/06 06:43:46;;;;;;;17.70;8.65;;;;;;;3.62;83.72;100005.22;128358;1101;62890;-75
2021/05/06 06:46:13;;;;;;;13.30;8.50;;;;;;;3.66;83.83;100011.83;128411;1101;62373;-75
2021/05/06 06:48:40;;;;;;;13.53;7.17;;;;;;;3.68;83.90;100015.13;128413;1101;62753;-75
2021/05/06 06:51:07;;;;;;;10.87;7.17;;;;;;;3.67;83.75;100004.78;128461;1101;62321;-74
2021/05/06 06:53:34;;;;;;;12.07;6.60;;;;;;;3.70;84.09;100001.03;128350;1101;63381;-74
2021/05/06 06:56:00;;;;;;;5.63;3.67;;;;;;;3.71;82.90;100013.19;128410;1101;62022;-73
2021/05/06 06:58:29;;;;;;;6.37;4.30;;;;;;;3.72;83.12;100018.30;128381;1101;62176;-72
2021/05/06 07:00:57;;;;;;;9.27;6.23;;;;;;;3.73;82.93;100013.87;128429;1101;62410;-74
2021/05/06 07:03:24;;;;;;;7.40;5.57;;;;;;;3.69;83.10;100015.95;128434;1101;62241;-75
2021/05/06 07:05:51;;;;;;;6.97;4.77;;;;;;;3.74;83.55;100005.86;128464;1101;62124;-75
2021/05/06 07:08:30;;;;;;;6.40;5.00;;;;;;;3.89;83.57;100000.93;128242;1102;62285;-74
2021/05/06 07:10:59;;;;;;;6.23;4.67;;;;;;;4.01;82.07;100002.34;128436;1101;62112;-73
2021/05/06 07:13:27;;;;;;;10.73;5.73;;;;;;;4.03;82.44;99999.57;128414;1101;62236;-73
2021/05/06 07:15:58;;;;;;;8.70;6.13;;;;;;;4.07;81.92;99993.87;128394;1101;62504;-74
2021/05/06 07:18:26;;;;;;;8.23;6.20;;;;;;;4.08;81.85;99995.53;128373;1101;62312;-74
2021/05/06 07:20:53;;;;;;;5.97;3.43;;;;;;;4.03;80.65;100000.39;128383;1101;62363;-75
2021/05/06 07:23:21;;;;;;;9.77;6.50;;;;;;;4.03;81.52;100000.39;128390;1101;62233;-78
2021/05/06 07:25:55;;;;;;;11.07;7.17;;;;;;;4.12;81.52;100017.03;128427;1096;62260;-75
2021/05/06 07:28:40;;;;;;;8.33;4.83;;;;;;;4.21;79.88;100016.16;128497;1101;62910;-76
2021/05/06 07:31:12;;;;;;;7.67;6.03;;;;;;;4.29;80.54;100007.51;128404;1101;62567;-75
2021/05/06 07:33:45;;;;;;;9.43;5.57;;;;;;;4.29;80.49;100003.11;128445;1101;62650;-75
2021/05/06 07:36:17;;;;;;;6.53;4.90;;;;;;;4.26;79.95;100008.64;128452;1101;62191;-76
2021/05/06 07:38:48;;;;;;;8.57;5.60;;;;;;;4.23;79.83;99998.45;128463;1101;62591;-75
2021/05/06 07:41:18;;;;;;;7.20;4.30;;;;;;;4.26;80.85;100005.20;128356;1101;62597;-74
2021/05/06 07:43:48;;;;;;;5.80;3.77;;;;;;;4.28;80.17;100005.88;128186;1101;62277;-75
2021/05/06 07:46:19;;;;;;;8.37;5.17;;;;;;;4.27;80.14;100015.56;128409;1101;62068;-76
2021/05/06 07:48:54;;;;;;;7.20;4.95;;;;;;;4.28;80.81;100008.50;128428;1101;62347;-74
2021/05/06 07:51:26;;;;;;;5.25;4.50;;;;;;;4.31;80.76;100010.81;128438;1101;62374;-74
2021/05/06 07:54:04;;;;;;;8.83;6.27;;;;;;;4.40;81.81;100009.07;128441;1101;62790;-76
2021/05/06 07:56:37;;;;;;;8.37;5.53;;;;;;;4.49;81.01;100019.50;128402;1101;62218;-74
2021/05/06 07:59:05;;;;;;;6.27;4.53;;;;;;;4.59;80.58;100008.92;128412;1101;62286;-74
2021/05/06 08:01:31;;;;;;;4.77;4.00;;;;;;;4.67;79.87;100010.77;128423;1101;62333;-74
2021/05/06 08:03:58;;;;;;;5.33;3.90;;;;;;;4.75;80.40;100008.20;128397;1101;62227;-74
2021/05/06 08:06:24;;;;;;;5.57;4.23;;;;;;;4.91;80.79;100012.75;128385;1101;63862;-74
2021/05/06 08:08:52;;;;;;;5.53;4.00;;;;;;;5.08;79.59;100008.41;128385;1101;61932;-74
2021/05/06 08:11:20;;;;;;;11.47;4.63;;;;;;;5.20;78.78;100012.39;128421;1101;62435;-74
2021/05/06 08:13:47;;;;;;;5.60;2.83;;;;;;;5.20;77.21;100011.58;128253;1101;62329;-74
2021/05/06 08:16:14;;;;;;;4.70;2.40;;;;;;;5.23;77.92;100009.47;128424;1101;62213;-74
2021/05/06 08:18:40;;;;;;;7.77;3.17;;;;;;;5.31;76.80;100009.51;128436;1101;62230;-75
2021/05/06 08:21:08;;;;;;;4.70;3.07;;;;;;;5.48;76.34;100010.41;128415;1101;62532;-74
2021/05/06 08:23:35;;;;;;;3.87;2.60;;;;;;;5.60;75.77;100024.08;128404;1101;62178;-73
2021/05/06 08:26:02;;;;;;;3.40;2.47;;;;;;;5.64;75.42;100021.96;128448;1101;62048;-76
2021/05/06 08:28:48;;;;;;;3.00;2.47;;;;;;;5.69;75.99;100007.32;128156;1102;62253;-76
2021/05/06 08:31:15;;;;;;;3.57;2.13;;;;;;;5.88;75.96;100013.30;128459;1101;62035;-76
2021/05/06 08:33:41;;;;;;;2.87;2.03;;;;;;;5.99;75.11;100013.02;128396;1101;62599;-74
2021/05/06 08:36:08;;;;;;;3.43;2.53;;;;;;;6.13;75.68;100008.94;128437;1101;62282;-75
2021/05/06 08:38:37;;;;;;;3.07;2.23;;;;;;;6.26;73.93;100014.53;128418;1101;62157;-78
2021/05/06 08:41:04;;;;;;;2.63;2.10;;;;;;;6.19;73.25;100010.11;128446;1101;62246;-79
2021/05/06 08:43:38;;;;;;;4.23;2.57;;;;;;;6.17;73.12;100009.45;128340;1101;62492;-77
2021/05/06 08:46:05;;;;;;;2.57;2.03;;;;;;;6.23;73.75;100014.06;128415;1100;62405;-77
2021/05/06 08:48:53;;;;;;;5.83;2.93;;;;;;;6.35;72.82;100007.45;128404;1101;62173;-76
2021/05/06 08:51:20;;;;;;;10.53;3.53;;;;;;;6.44;73.24;100009.13;128424;1101;62134;-78
2021/05/06 08:53:47;;;;;;;3.60;2.60;;;;;;;6.62;73.42;100016.03;128413;1101;62109;-77
2021/05/06 08:56:14;;;;;;;3.13;1.77;;;;;;;6.71;71.23;100015.84;128407;1101;64343;-76
2021/05/06 08:58:40;;;;;;;2.60;1.87;;;;;;;6.85;71.02;100016.98;128406;1101;62479;-75
2021/05/06 09:01:07;;;;;;;2.63;2.10;;;;;;;6.90;70.02;100027.03;128417;1101;62013;-76
2021/05/06 09:03:35;;;;;;;4.23;2.50;;;;;;;6.97;69.71;100027.17;128379;1101;62417;-75
2021/05/06 09:06:10;;;;;;;4.43;2.33;;;;;;;7.02;70.33;100022.24;128400;1101;62001;-74
2021/05/06 09:08:42;;;;;;;;;;;;;;;7.13;69.31;100016.59;128431;1101;62803;-74
2021/05/06 09:11:09;;;;;;;2.20;1.73;;;;;;;7.25;67.46;100015.25;128387;1101;62718;-75
2021/05/06 09:13:37;;;;;;;2.53;1.87;;;;;;;7.47;67.01;100021.59;128422;1101;62345;-74
2021/05/06 09:16:05;;;;;;;2.70;1.83;;;;;;;7.44;63.07;100021.95;128386;1101;62150;-75
2021/05/06 09:18:36;;;;;;;4.17;2.40;;;;;;;7.66;62.93;100020.36;128363;1101;62727;-74
2021/05/06 09:21:05;;;;;;;3.40;1.93;;;;;;;7.95;65.37;100017.06;128409;1101;62458;-75
2021/05/06 09:23:32;;;;;;;4.30;2.60;;;;;;;8.15;63.76;100009.49;128330;1101;64483;-75
2021/05/06 09:26:06;;;;;;;4.93;3.07;;;;;;;8.43;62.11;100024.03;128377;1101;62059;-74
2021/05/06 09:29:10;;;;;;;3.93;2.40;;;;;;;8.67;60.88;100015.91;128200;1096;64803;-75
2021/05/06 09:31:39;;;;;;;3.70;1.37;;;;;;;8.76;57.87;100020.11;128277;1101;62051;-76
2021/05/06 09:34:08;;;;;;;4.00;2.50;;;;;;;8.78;59.72;100022.58;128437;1101;62460;-77
2021/05/06 09:36:37;;;;;;;6.23;2.83;;;;;;;8.74;59.76;100026.58;128390;1101;62604;-76
2021/05/06 09:39:10;;;;;;;4.20;2.53;;;;;;;8.75;58.04;100013.16;128398;1101;62089;-76
2021/05/06 09:41:37;;;;;;;4.60;2.60;;;;;;;9.00;59.13;100026.16;128420;1101;62642;-76
2021/05/06 09:44:13;;;;;;;4.97;2.50;;;;;;;8.93;56.17;100020.77;128494;1101;62137;-77
2021/05/06 09:46:56;;;;;;;6.20;2.30;;;;;;;9.06;55.92;100019.33;128428;1101;62557;-77
2021/05/06 09:49:23;;;;;;;4.10;2.45;;;;;;;9.21;56.10;100017.50;128212;1101;62407;-77
2021/05/06 09:51:57;;;;;;;5.10;2.43;;;;;;;9.45;56.36;100012.92;128354;1101;62121;-74
2021/05/06 09:54:27;;;;;;;5.58;2.45;;;;;;;9.63;54.38;100015.17;128382;1101;62334;-74
2021/05/06 09:57:00;;;;;;;3.07;1.83;;;;;;;9.71;53.35;100010.61;128395;1101;62054;-76
2021/05/06 09:59:29;;;;;;;4.60;2.40;;;;;;;9.76;53.16;100015.34;128454;1101;63974;-76
2021/05/06 10:02:10;;;;;;;4.97;1.87;;;;;;;9.70;54.21;100008.14;128418;1101;62218;-77
2021/05/06 10:04:40;;;;;;;5.03;2.43;;;;;;;9.77;54.01;100007.20;128396;1101;62278;-77
2021/05/06 10:07:17;;;;;;;5.07;2.20;;;;;;;9.92;51.57;100008.98;128479;1101;62129;-77
2021/05/06 10:10:05;;;;;;;4.10;2.10;;;;;;;10.04;50.60;100018.09;128444;1101;62063;-76
2021/05/06 10:12:34;;;;;;;7.03;3.45;;;;;;;10.03;51.36;100005.87;128435;1101;62651;-76
2021/05/06 10:15:05;;;;;;;3.67;2.37;;;;;;;10.13;49.79;100005.54;128367;1101;62035;-77
2021/05/06 10:17:32;;;;;;;5.43;2.60;;;;;;;10.16;49.87;100010.48;128352;1101;62319;-78
2021/05/06 10:19:59;;;;;;;4.37;2.37;;;;;;;10.25;49.27;100004.03;128367;1101;62997;-79
2021/05/06 10:22:29;;;;;;;3.70;1.67;;;;;;;10.37;50.91;100007.02;128444;1101;62590;-77
2021/05/06 10:25:00;;;;;;;3.23;1.70;;;;;;;10.43;45.18;100006.25;128423;1101;62704;-78
2021/05/06 10:27:27;;;;;;;4.57;1.67;;;;;;;10.34;46.92;99996.80;128138;1102;62141;-77
2021/05/06 10:29:58;;;;;;;2.80;1.80;;;;;;;10.36;45.77;100005.39;128380;1101;62176;-78
2021/05/06 10:32:27;;;;;;;2.97;1.50;;;;;;;10.42;43.00;100004.63;128458;1101;62400;-79
2021/05/06 10:34:59;;;;;;;2.10;1.07;;;;;;;10.52;43.67;99989.22;128447;1101;63310;-79
2021/05/06 10:37:34;;;;;;;2.60;1.30;;;;;;;10.52;46.31;99999.82;128225;1101;62315;-77
2021/05/06 10:40:06;;;;;;;2.90;1.50;;;;;;;10.49;43.54;99992.23;128387;1101;62329;-78
2021/05/06 10:42:35;;;;;;;2.73;1.40;;;;;;;10.52;43.86;99994.52;128416;1101;62662;-77
2021/05/06 10:45:14;;;;;;;3.15;1.85;;;;;;;10.56;44.45;99997.59;128385;1101;63073;-78
2021/05/06 10:47:46;;;;;;;2.50;1.23;;;;;;;10.62;41.67;99978.25;128436;1101;62214;-79
2021/05/06 10:50:21;;;;;;;2.17;1.20;;;;;;;10.76;40.38;99980.00;128454;1101;62185;-79
2021/05/06 10:52:56;;;;;;;4.40;1.83;;;;;;;10.96;42.00;99987.27;128168;1102;62160;-77
2021/05/06 10:55:47;;;;;;;5.25;2.05;;;;;;;11.02;40.83;99989.95;128392;1101;62039;-78
2021/05/06 10:58:23;;;;;;;2.60;1.63;;;;;;;11.07;42.18;99980.59;128466;1101;62630;-78
2021/05/06 11:01:12;;;;;;;2.33;1.27;;;;;;;11.17;42.18;99981.87;128436;1101;62685;-78
2021/05/06 11:03:40;;;;;;;3.83;1.63;;;;;;;10.89;41.27;99989.06;128400;1101;62421;-77
2021/05/06 11:06:07;;;;;;;3.63;1.60;;;;;;;11.00;40.40;99975.25;128388;1101;63155;-78
2021/05/06 11:08:35;;;;;;;3.30;1.80;;;;;;;11.17;42.29;99975.75;128214;1101;62168;-77
2021/05/06 11:11:06;;;;;;;3.57;1.80;;;;;;;11.40;43.03;99976.27;128435;1101;62350;-77
2021/05/06 11:14:03;;;;;;;4.27;1.50;;;;;;;11.59;41.78;99968.58;128439;1101;62239;-78
2021/05/06 11:16:29;;;;;;;4.27;1.97;;;;;;;11.65;41.03;99973.09;128413;1101;62361;-76
2021/05/06 11:18:57;;;;;;;3.50;1.80;;;;;;;11.93;40.35;99953.57;128384;1101;62189;-76
2021/05/06 11:21:29;;;;;;;4.17;1.50;;;;;;;11.96;39.79;99972.58;128418;1101;62326;-77
2021/05/06 11:24:24;;;;;;;4.93;2.10;;;;;;;12.03;40.55;99962.79;128392;1101;62079;-78
2021/05/06 11:27:00;;;;;;;2.73;1.33;;;;;;;12.19;39.02;99958.91;128453;1101;62650;-78
2021/05/06 11:29:28;;;;;;;2.13;0.87;;;;;;;12.29;40.26;99965.68;128455;1101;62852;-79
2021/05/06 11:31:55;;;;;;;2.97;1.60;;;;;;;12.49;38.67;99957.69;128426;1101;62744;-78
2021/05/06 11:34:33;;;;;;;3.00;1.27;;;;;;;12.54;38.27;99961.38;128445;1101;64016;-77
2021/05/06 11:37:14;;;;;;;2.80;1.70;;;;;;;12.50;38.32;99960.16;128430;1101;62610;-78
2021/05/06 11:39:53;;;;;;;4.77;1.37;;;;;;;12.53;39.05;99945.61;128425;1101;62269;-77
2021/05/06 11:42:22;;;;;;;4.93;2.20;;;;;;;12.42;39.15;99952.38;128160;1103;64037;-77
2021/05/06 11:45:11;;;;;;;6.83;2.03;;;;;;;12.39;38.25;99952.80;128430;1101;62110;-77
2021/05/06 11:47:42;;;;;;;3.93;1.90;;;;;;;12.51;37.46;99945.81;128421;1101;62676;-75
2021/05/06 11:50:24;;;;;;;3.27;2.20;;;;;;;12.72;36.73;99951.94;128285;1102;63054;-76
2021/05/06 11:52:55;;;;;;;3.10;1.63;;;;;;;12.66;37.94;99934.95;128549;1101;62352;-76
2021/05/06 11:55:53;;;;;;;3.03;1.33;;;;;;;12.49;37.54;99953.18;128351;1101;62637;-76
2021/05/06 11:58:25;;;;;;;1.97;1.07;;;;;;;12.64;36.27;99948.48;128232;1101;62180;-76
2021/05/06 12:00:53;;;;;;;3.23;1.23;;;;;;;12.94;35.76;99944.52;128425;1100;62156;-77
2021/05/06 12:03:33;;;;;;;4.17;1.87;;;;;;;13.15;35.72;99941.58;128451;1101;62408;-77
2021/05/06 12:06:01;;;;;;;3.53;1.60;;;;;;;12.99;36.15;99937.55;128191;1102;62319;-77
2021/05/06 12:08:33;;;;;;;1.50;0.93;;;;;;;13.37;35.69;99939.49;128516;1101;62828;-77
2021/05/06 12:11:04;;;;;;;2.17;1.27;;;;;;;13.72;35.75;99940.95;128450;1101;62251;-76
2021/05/06 12:13:35;;;;;;;2.27;1.10;;;;;;;14.17;34.38;99932.84;128444;1101;62024;-76
2021/05/06 12:16:22;;;;;;;5.23;1.93;;;;;;;14.54;33.23;99922.30;128452;1101;62170;-76
2021/05/06 12:19:01;;;;;;;5.20;1.50;;;;;;;15.03;32.98;99931.26;128396;1101;62373;-76
2021/05/06 12:21:38;;;;;;;2.60;1.30;;;;;;;15.37;32.43;99921.80;128151;1101;63253;-77
2021/05/06 12:24:07;;;;;;;2.83;1.20;;;;;;;15.51;32.60;99922.42;128370;1101;61644;-76
2021/05/06 12:26:34;;;;;;;3.07;1.70;;;;;;;15.80;30.73;99918.14;128438;1101;62523;-76
2021/05/06 12:29:02;;;;;;;3.10;1.70;;;;;;;15.61;30.98;99914.68;128431;1101;61960;-76
2021/05/06 12:31:30;;;;;;;2.63;1.37;;;;;;;15.89;31.26;99902.59;128447;1101;62090;-76
2021/05/06 12:33:58;;;;;;;3.43;1.60;;;;;;;16.08;30.22;99916.70;128413;1101;62479;-77
2021/05/06 12:36:25;;;;;;;2.50;1.87;;;;;;;16.06;29.85;99894.70;128384;1101;62425;-77
2021/05/06 12:38:52;;;;;;;2.80;1.50;;;;;;;16.50;28.53;99897.88;128449;1101;62079;-76
2021/05/06 12:41:19;;;;;;;3.00;1.60;;;;;;;16.80;27.59;99902.28;128265;1101;62383;-76
2021/05/06 12:43:51;;;;;;;2.30;1.40;;;;;;;17.21;27.66;99892.42;128210;1101;63041;-76
2021/05/06 12:46:25;;;;;;;1.60;0.77;;;;;;;18.00;27.34;99889.02;128343;1101;63810;-77
2021/05/06 12:49:01;;;;;;;2.17;1.10;;;;;;;17.79;26.75;99896.72;128414;1101;62081;-77
2021/05/06 12:51:33;;;;;;;3.50;1.50;;;;;;;17.10;27.85;99892.20;128470;1101;62034;-76
2021/05/06 12:54:10;;;;;;;3.60;1.20;;;;;;;17.35;27.60;99891.09;128402;1101;62621;-80
2021/05/06 12:56:41;;;;;;;6.47;1.70;;;;;;;17.83;27.55;99889.01;128275;1101;62285;-79
2021/05/06 12:59:25;;;;;;;2.03;0.70;;;;;;;17.16;27.79;99893.13;128428;1101;62868;-80
2021/05/06 13:01:53;;;;;;;4.83;1.90;;;;;;;16.60;30.04;99884.73;128260;1101;62091;-82
2021/05/06 13:04:20;;;;;;;6.63;1.70;;;;;;;16.66;30.57;99885.63;128462;1101;62327;-77
2021/05/06 13:07:00;;;;;;;4.30;2.07;;;;;;;16.57;31.95;99881.69;128408;1101;62312;-76
2021/05/06 13:09:39;;;;;;;4.33;2.00;;;;;;;16.88;32.26;99878.65;128147;1101;62007;-76
2021/05/06 13:12:14;;;;;;;3.20;1.10;;;;;;;18.47;29.19;99881.44;128433;1101;62761;-76
2021/05/06 13:15:01;;;;;;;3.03;1.70;;;;;;;19.67;27.62;99879.90;128337;1101;62278;-77
2021/05/06 13:17:33;;;;;;;2.93;1.50;;;;;;;20.75;25.99;99873.45;128228;1101;62250;-77
2021/05/06 13:20:17;;;;;;;2.57;1.00;;;;;;;21.89;24.86;99865.38;128431;1101;62552;-79
2021/05/06 13:23:01;;;;;;;2.70;1.70;;;;;;;23.13;24.04;99855.90;128478;1101;61697;-78
2021/05/06 13:25:43;;;;;;;2.15;0.93;;;;;;;24.23;19.97;99855.64;128456;1101;62264;-79
2021/05/06 13:28:11;;;;;;;1.47;0.70;;;;;;;24.44;17.58;99856.23;128181;1101;62178;-78
2021/05/06 13:30:38;;;;;;;1.80;1.00;;;;;;;24.36;17.03;99854.16;128425;1101;62101;-79
2021/05/06 13:33:21;;;;;;;2.33;1.30;;;;;;;23.84;18.16;99864.64;128282;1102;62408;-78
2021/05/06 13:36:05;;;;;;;3.20;1.03;;;;;;;23.42;18.93;99857.91;128440;1101;62006;-77
2021/05/06 13:39:01;;;;;;;1.30;0.83;;;;;;;23.58;18.87;99851.27;128381;1101;62836;-77
2021/05/06 13:41:47;;;;;;;1.43;0.83;;;;;;;23.68;18.38;99847.69;128427;1101;62310;-76
2021/05/06 13:44:16;;;;;;;2.53;1.00;;;;;;;23.92;18.95;99844.28;128474;1101;62267;-77
2021/05/06 13:46:45;;;;;;;1.77;1.03;;;;;;;24.15;18.96;99856.26;128400;1101;62235;-76
2021/05/06 13:49:13;;;;;;;2.43;1.00;;;;;;;24.15;17.47;99843.52;128451;1101;62258;-76
2021/05/06 13:51:39;;;;;;;2.70;1.10;;;;;;;24.38;17.76;99841.13;128444;1101;63132;-76
2021/05/06 13:54:06;;;;;;;3.47;1.30;;;;;;;24.58;16.71;99829.26;128422;1101;62410;-76
2021/05/06 13:56:33;;;;;;;2.47;1.20;;;;;;;25.04;16.88;99831.39;128511;1101;63207;-76
2021/05/06 13:59:00;;;;;;;1.90;1.00;;;;;;;25.08;17.73;99826.99;128491;1101;62013;-80
2021/05/06 14:01:27;;;;;;;1.90;1.03;;;;;;;25.17;16.99;99825.23;128231;1102;62092;-80
2021/05/06 14:03:54;;;;;;;1.80;1.03;;;;;;;25.17;17.05;99817.08;128527;1101;62948;-80
2021/05/06 14:06:20;;;;;;;3.13;1.10;;;;;;;24.38;18.34;99814.81;128441;1101;62242;-80
2021/05/06 14:08:47;;;;;;;2.13;1.00;;;;;;;24.22;17.47;99821.48;128204;1101;62285;-81
2021/05/06 14:11:14;;;;;;;2.13;1.10;;;;;;;24.35;17.86;99815.38;128463;1101;62504;-80
2021/05/06 14:14:00;;;;;;;2.73;1.07;;;;;;;23.16;19.54;99805.83;128437;1101;62416;-77
2021/05/06 14:16:27;;;;;;;1.87;0.80;;;;;;;22.16;20.01;99816.44;128454;1101;62942;-77
2021/05/06 14:18:54;;;;;;;3.07;1.23;;;;;;;22.17;20.14;99811.88;128444;1101;62675;-75
2021/05/06 14:21:23;;;;;;;2.67;1.70;;;;;;;21.25;20.93;99811.84;128426;1101;62289;-78
2021/05/06 14:23:50;;;;;;;2.10;1.60;;;;;;;20.13;22.02;99815.70;128174;1101;62172;-78
2021/05/06 14:26:21;;;;;;;3.17;1.53;;;;;;;19.40;23.03;99810.77;128431;1101;62079;-78
2021/05/06 14:28:49;;;;;;;2.73;1.17;;;;;;;19.47;23.12;99811.39;128449;1101;62707;-78
2021/05/06 14:31:15;;;;;;;3.00;1.30;;;;;;;20.45;22.71;99806.72;128438;1101;62202;-77
2021/05/06 14:33:42;;;;;;;2.67;1.10;;;;;;;21.53;21.78;99805.98;128440;1101;62132;-77
2021/05/06 14:36:10;;;;;;;1.90;1.20;;;;;;;22.13;20.65;99799.99;128455;1101;62374;-78
2021/05/06 14:38:38;;;;;;;3.60;1.57;;;;;;;22.74;18.90;99793.61;128507;1101;61981;-78
2021/05/06 14:41:06;;;;;;;1.67;0.73;;;;;;;22.86;19.94;99798.67;128408;1101;62030;-79
2021/05/06 14:43:33;;;;;;;2.43;1.00;;;;;;;22.77;19.04;99801.16;128453;1101;62251;-79
2021/05/06 14:46:00;;;;;;;4.63;1.87;;;;;;;23.32;18.86;99799.23;128356;1101;62273;-77
2021/05/06 14:48:27;;;;;;;3.20;1.10;;;;;;;22.00;19.12;99795.97;128460;1101;62018;-77
2021/05/06 14:50:54;;;;;;;2.57;1.13;;;;;;;20.77;20.74;99796.63;128275;1101;62316;-77
2021/05/06 14:53:21;;;;;;;10.25;2.00;;;;;;;20.81;20.63;99788.03;128462;1101;63554;-78